createdAt,value
2019-01-04T00:00:40.914Z,2.83
2019-01-04T00:03:09.515Z,3.17
2019-01-04T00:05:37.949Z,5.13
2019-01-04T00:08:07.180Z,6.47
2019-01-04T00:10:35.623Z,4.03
2019-01-04T00:13:04.094Z,3.30
2019-01-04T00:15:32.533Z,6.87
2019-01-04T00:18:01.001Z,3.80
2019-01-04T00:20:29.439Z,8.10
2019-01-04T00:22:57.904Z,9.57
2019-01-04T00:25:26.342Z,4.13
2019-01-04T00:27:54.799Z,4.07
2019-01-04T00:30:23.238Z,6.27
2019-01-04T00:32:51.705Z,8.27
2019-01-04T00:35:20.144Z,5.00
2019-01-04T00:37:48.634Z,4.10
2019-01-04T00:40:17.141Z,6.87
2019-01-04T00:42:45.583Z,9.30
2019-01-04T00:45:14.051Z,6.63
2019-01-04T00:47:42.488Z,6.93
2019-01-04T00:50:10.954Z,9.47
2019-01-04T00:52:39.392Z,10.63
2019-01-04T00:55:20.061Z,6.03
2019-01-04T00:58:03.527Z,7.03
2019-01-04T01:00:54.476Z,13.65
2019-01-04T01:03:44.491Z,9.67
2019-01-04T01:06:32.640Z,12.83
2019-01-04T01:09:31.065Z,7.20
2019-01-04T01:12:14.829Z,9.33
2019-01-04T01:14:57.900Z,11.97
2019-01-04T01:17:50.641Z,24.43
2019-01-04T01:20:40.208Z,10.90
2019-01-04T01:23:44.989Z,16.13
2019-01-04T01:26:31.660Z,16.17
2019-01-04T01:29:22.376Z,22.63
2019-01-04T01:31:56.185Z,11.63
2019-01-04T01:34:49.084Z,20.63
2019-01-04T01:37:45.240Z,17.07
2019-01-04T01:40:41.249Z,20.23
2019-01-04T01:43:33.659Z,24.13
2019-01-04T01:46:22.020Z,17.63
2019-01-04T01:49:11.769Z,20.70
2019-01-04T01:51:43.383Z,18.70
2019-01-04T01:54:11.922Z,18.00
2019-01-04T01:56:40.371Z,21.23
2019-01-04T01:59:08.839Z,11.40
2019-01-04T02:01:37.297Z,13.03
2019-01-04T02:04:05.736Z,18.50
2019-01-04T02:06:34.304Z,18.07
2019-01-04T02:09:07.421Z,16.70
2019-01-04T02:11:34.579Z,22.97
2019-01-04T02:14:03.016Z,17.23
2019-01-04T02:16:31.488Z,25.70
2019-01-04T02:18:59.932Z,25.57
2019-01-04T02:21:28.400Z,22.70
2019-01-04T02:23:56.845Z,21.20
2019-01-04T02:26:25.317Z,18.80
2019-01-04T02:28:53.759Z,25.40
2019-01-04T02:31:22.240Z,26.70
2019-01-04T02:33:50.752Z,28.50
2019-01-04T02:36:19.238Z,29.93
2019-01-04T02:38:47.677Z,30.47
2019-01-04T02:41:16.158Z,25.17
2019-01-04T02:43:44.611Z,25.00
2019-01-04T02:46:13.200Z,41.07
2019-01-04T02:48:41.642Z,30.40
2019-01-04T02:51:10.152Z,24.90
2019-01-04T02:53:38.596Z,32.27
2019-01-04T02:56:07.064Z,37.63
2019-01-04T02:58:35.508Z,27.07
2019-01-04T03:01:03.980Z,29.33
2019-01-04T03:03:32.429Z,30.80
2019-01-04T03:06:00.897Z,41.70
2019-01-04T03:08:29.341Z,31.27
2019-01-04T03:10:57.822Z,29.27
2019-01-04T03:13:26.353Z,35.90
2019-01-04T03:15:54.834Z,23.50
2019-01-04T03:18:23.281Z,43.73
2019-01-04T03:20:51.765Z,21.10
2019-01-04T03:23:20.189Z,31.30
2019-01-04T03:25:48.633Z,47.43
2019-01-04T03:28:17.107Z,24.43
2019-01-04T03:30:45.553Z,33.93
2019-01-04T03:33:14.046Z,22.97
2019-01-04T03:35:42.485Z,28.10
2019-01-04T03:38:10.968Z,27.70
2019-01-04T03:40:39.406Z,31.53
2019-01-04T03:43:07.886Z,34.70
2019-01-04T03:45:36.333Z,33.17
2019-01-04T03:48:04.803Z,31.37
2019-01-04T03:50:33.414Z,33.60
2019-01-04T03:53:01.887Z,22.43
2019-01-04T03:55:30.333Z,26.73
2019-01-04T03:57:58.805Z,28.43
2019-01-04T04:00:27.261Z,26.87
2019-01-04T04:02:55.733Z,32.37
2019-01-04T04:05:24.189Z,25.13
2019-01-04T04:07:52.669Z,24.17
2019-01-04T04:10:21.114Z,28.07
2019-01-04T04:12:49.631Z,36.93
2019-01-04T04:15:18.085Z,23.63
2019-01-04T04:17:46.557Z,25.23
2019-01-04T04:20:14.997Z,20.90
2019-01-04T04:22:43.470Z,31.20
2019-01-04T04:25:11.925Z,32.03
2019-01-04T04:27:40.370Z,21.67
2019-01-04T04:30:08.917Z,27.00
2019-01-04T04:32:37.375Z,21.30
2019-01-04T04:35:06.017Z,26.30
2019-01-04T04:37:34.461Z,21.90
2019-01-04T04:40:02.932Z,25.50
2019-01-04T04:42:31.372Z,26.07
2019-01-04T04:44:59.847Z,32.23
2019-01-04T04:47:28.293Z,24.23
2019-01-04T04:49:56.756Z,19.83
2019-01-04T04:52:25.203Z,25.47
2019-01-04T04:54:53.674Z,23.57
2019-01-04T04:57:22.118Z,25.77
2019-01-04T04:59:50.585Z,18.33
2019-01-04T05:02:19.029Z,16.93
2019-01-04T05:04:47.501Z,18.63
2019-01-04T05:07:15.962Z,23.03
2019-01-04T05:09:44.440Z,17.93
2019-01-04T05:12:12.893Z,20.40
2019-01-04T05:14:41.360Z,23.83
2019-01-04T05:17:09.796Z,23.20
2019-01-04T05:19:38.266Z,23.57
2019-01-04T05:22:06.705Z,21.40
2019-01-04T05:24:35.145Z,31.00
2019-01-04T05:27:03.622Z,23.50
2019-01-04T05:29:32.056Z,43.67
2019-01-04T05:32:00.526Z,16.67
2019-01-04T05:34:28.966Z,26.50
2019-01-04T05:36:57.447Z,19.67
2019-01-04T05:39:25.901Z,28.33
2019-01-04T05:41:54.371Z,19.67
2019-01-04T05:44:22.808Z,19.90
2019-01-04T05:46:51.289Z,19.93
2019-01-04T05:49:19.732Z,26.83
2019-01-04T05:51:48.197Z,20.90
2019-01-04T05:54:17.300Z,19.83
2019-01-04T05:56:45.772Z,29.67
2019-01-04T05:59:14.221Z,18.97
2019-01-04T06:01:42.695Z,21.23
2019-01-04T06:04:11.141Z,29.43
2019-01-04T06:06:39.609Z,19.57
2019-01-04T06:09:08.635Z,19.03
2019-01-04T06:11:37.104Z,18.10
2019-01-04T06:14:05.541Z,19.87
2019-01-04T06:16:34.003Z,13.90
2019-01-04T06:19:02.449Z,26.80
2019-01-04T06:21:30.995Z,21.20
2019-01-04T06:23:59.455Z,15.30
2019-01-04T06:26:27.899Z,13.57
2019-01-04T06:28:56.363Z,15.90
2019-01-04T06:31:24.805Z,26.40
2019-01-04T06:33:53.640Z,13.47
2019-01-04T06:36:22.079Z,15.27
2019-01-04T06:38:50.544Z,12.23
2019-01-04T06:41:18.983Z,9.77
2019-01-04T06:43:47.460Z,22.40
2019-01-04T06:46:15.900Z,12.97
2019-01-04T06:48:44.365Z,7.10
2019-01-04T06:51:12.800Z,14.83
2019-01-04T06:53:41.265Z,10.60
2019-01-04T06:56:09.706Z,9.93
2019-01-04T06:58:38.171Z,19.80
2019-01-04T07:01:06.606Z,8.30
2019-01-04T07:03:35.071Z,9.43
2019-01-04T07:06:03.509Z,16.50
2019-01-04T07:08:31.979Z,15.80
2019-01-04T07:11:00.414Z,9.80
2019-01-04T07:13:28.879Z,16.40
2019-01-04T07:15:57.327Z,12.43
2019-01-04T07:18:26.147Z,8.80
2019-01-04T07:20:54.578Z,9.20
2019-01-04T07:23:24.036Z,6.33
2019-01-04T07:25:52.576Z,5.33
2019-01-04T07:28:21.015Z,21.53
2019-01-04T07:30:49.488Z,8.77
2019-01-04T07:33:17.915Z,11.13
2019-01-04T07:35:46.382Z,11.70
2019-01-04T07:38:14.820Z,6.93
2019-01-04T07:40:43.285Z,6.23
2019-01-04T07:43:16.412Z,6.20
2019-01-04T07:45:41.915Z,6.93
2019-01-04T07:48:10.351Z,13.83
2019-01-04T07:50:38.812Z,7.80
2019-01-04T07:53:07.255Z,4.60
2019-01-04T07:55:35.715Z,7.13
2019-01-04T07:58:04.150Z,6.23
2019-01-04T08:00:32.621Z,21.43
2019-01-04T08:03:01.194Z,6.87
2019-01-04T08:05:29.652Z,5.10
2019-01-04T08:07:58.081Z,7.17
2019-01-04T08:10:26.541Z,5.23
2019-01-04T08:12:55.147Z,5.00
2019-01-04T08:15:23.606Z,5.40
2019-01-04T08:17:52.051Z,5.77
2019-01-04T08:20:20.515Z,4.13
2019-01-04T08:22:48.964Z,6.23
2019-01-04T08:25:17.427Z,11.53
2019-01-04T08:27:45.866Z,4.13
2019-01-04T08:30:14.594Z,4.40
2019-01-04T08:32:43.038Z,4.30
2019-01-04T08:35:11.478Z,3.70
2019-01-04T08:37:40.016Z,3.83
2019-01-04T08:40:09.522Z,3.80
2019-01-04T08:42:38.001Z,4.47
2019-01-04T08:45:07.784Z,3.50
2019-01-04T08:47:36.242Z,6.67
2019-01-04T08:50:07.124Z,3.40
2019-01-04T08:52:35.606Z,6.23
2019-01-04T08:55:06.282Z,6.43
2019-01-04T08:57:34.751Z,3.10
2019-01-04T09:00:03.923Z,2.70
2019-01-04T09:02:32.394Z,5.20
2019-01-04T09:05:00.831Z,3.30
2019-01-04T09:07:29.361Z,3.83
2019-01-04T09:09:57.804Z,5.90
2019-01-04T09:12:26.268Z,4.07
2019-01-04T09:14:54.699Z,3.20
2019-01-04T09:17:23.160Z,4.17
2019-01-04T09:19:51.599Z,3.70
2019-01-04T09:22:20.067Z,4.43
2019-01-04T09:24:48.504Z,3.30
2019-01-04T09:27:16.965Z,4.67
2019-01-04T09:29:45.398Z,4.23
2019-01-04T09:32:13.858Z,6.50
2019-01-04T09:34:42.302Z,4.20
2019-01-04T09:37:10.769Z,4.97
2019-01-04T09:39:39.287Z,3.87
2019-01-04T09:42:07.722Z,5.83
2019-01-04T09:44:36.184Z,6.13
2019-01-04T09:47:04.624Z,3.77
2019-01-04T09:49:33.087Z,4.47
2019-01-04T09:52:01.530Z,3.23
2019-01-04T09:54:29.991Z,3.47
2019-01-04T09:56:58.427Z,2.53
2019-01-04T09:59:26.886Z,2.27
2019-01-04T10:01:55.338Z,5.00
2019-01-04T10:04:23.801Z,2.40
2019-01-04T10:06:52.239Z,2.07
2019-01-04T10:09:20.713Z,3.17
2019-01-04T10:11:49.256Z,1.73
2019-01-04T10:14:17.728Z,2.00
2019-01-04T10:16:46.170Z,2.10
2019-01-04T10:19:14.632Z,2.43
2019-01-04T10:21:43.070Z,1.70
2019-01-04T10:24:12.848Z,2.93
2019-01-04T10:26:41.338Z,2.60
2019-01-04T10:29:09.883Z,3.73
2019-01-04T10:31:38.325Z,1.20
2019-01-04T10:34:06.842Z,1.90
2019-01-04T10:36:35.279Z,1.30
2019-01-04T10:39:05.388Z,1.83
2019-01-04T10:41:33.823Z,1.27
2019-01-04T10:44:02.586Z,3.63
2019-01-04T10:46:31.016Z,3.90
2019-01-04T10:48:59.446Z,5.43
2019-01-04T10:51:27.915Z,1.60
2019-01-04T10:53:56.361Z,2.30
2019-01-04T10:56:24.831Z,1.47
2019-01-04T10:58:53.279Z,1.70
2019-01-04T11:01:21.743Z,1.57
2019-01-04T11:03:50.185Z,12.90
2019-01-04T11:06:18.650Z,2.40
2019-01-04T11:08:47.082Z,4.53
2019-01-04T11:11:15.542Z,2.50
2019-01-04T11:13:43.991Z,2.87
2019-01-04T11:16:12.451Z,2.40
2019-01-04T11:18:40.889Z,5.53
2019-01-04T11:21:09.347Z,3.43
2019-01-04T11:23:46.750Z,2.40
2019-01-04T11:26:24.192Z,2.87
2019-01-04T11:29:13.980Z,6.00
2019-01-04T11:31:57.351Z,2.83
2019-01-04T11:34:35.103Z,3.80
2019-01-04T11:37:23.531Z,4.43
2019-01-04T11:40:01.180Z,1.83
2019-01-04T11:42:32.824Z,19.00
2019-01-04T11:45:22.583Z,1.60
2019-01-04T11:48:00.011Z,4.17
2019-01-04T11:50:46.796Z,3.23
2019-01-04T11:53:16.368Z,2.90
2019-01-04T11:55:44.804Z,3.00
2019-01-04T11:58:13.262Z,1.80
2019-01-04T12:00:41.698Z,3.97
2019-01-04T12:03:10.172Z,2.40
2019-01-04T12:05:38.609Z,6.10
2019-01-04T12:08:07.114Z,2.50
2019-01-04T12:10:35.567Z,2.27
2019-01-04T12:13:04.022Z,7.00
2019-01-04T12:15:32.460Z,1.63
2019-01-04T12:18:00.927Z,1.70
2019-01-04T12:20:29.362Z,6.83
2019-01-04T12:22:57.824Z,1.73
2019-01-04T12:25:26.261Z,4.60
2019-01-04T12:27:54.719Z,1.03
2019-01-04T12:30:23.154Z,2.23
2019-01-04T12:32:51.623Z,2.93
2019-01-04T12:35:20.079Z,3.13
2019-01-04T12:37:48.531Z,6.93
2019-01-04T12:40:16.976Z,1.73
2019-01-04T12:42:45.426Z,2.07
2019-01-04T12:45:14.031Z,5.70
2019-01-04T12:47:42.490Z,2.70
2019-01-04T12:50:10.922Z,3.80
2019-01-04T12:52:39.469Z,4.93
2019-01-04T12:55:07.908Z,11.17
2019-01-04T12:57:36.345Z,2.37
2019-01-04T13:00:08.082Z,2.77
2019-01-04T13:02:36.518Z,2.57
2019-01-04T13:05:05.248Z,2.93
2019-01-04T13:07:33.686Z,4.97
2019-01-04T13:10:02.148Z,7.47
2019-01-04T13:12:30.606Z,10.23
2019-01-04T13:14:59.069Z,2.83
2019-01-04T13:17:27.504Z,4.33
2019-01-04T13:19:55.968Z,14.90
2019-01-04T13:22:24.406Z,8.90
2019-01-04T13:24:52.879Z,13.23
2019-01-04T13:27:22.637Z,24.73
2019-01-04T13:29:51.446Z,13.27
2019-01-04T13:32:19.883Z,15.20
2019-01-04T13:34:48.348Z,14.07
2019-01-04T13:37:16.800Z,24.70
2019-01-04T13:39:45.260Z,10.53
2019-01-04T13:42:13.710Z,16.03
2019-01-04T13:44:42.171Z,27.73
2019-01-04T13:47:10.621Z,18.47
2019-01-04T13:49:39.079Z,15.73
2019-01-04T13:52:07.583Z,12.43
2019-01-04T13:54:36.032Z,15.47
2019-01-04T13:57:05.063Z,19.97
2019-01-04T13:59:33.506Z,20.10
2019-01-04T14:02:01.973Z,14.87
2019-01-04T14:04:30.423Z,19.97
2019-01-04T14:06:58.888Z,17.47
2019-01-04T14:09:27.337Z,22.43
2019-01-04T14:11:55.800Z,15.97
2019-01-04T14:14:24.246Z,30.30
2019-01-04T14:16:52.716Z,6.00
2019-01-04T14:19:21.154Z,30.43
2019-01-04T14:21:49.628Z,18.60
2019-01-04T14:24:18.068Z,21.37
2019-01-04T14:26:46.534Z,17.70
2019-01-04T14:29:14.974Z,34.17
2019-01-04T14:31:43.443Z,28.30
2019-01-04T14:34:11.879Z,23.93
2019-01-04T14:36:40.348Z,12.30
2019-01-04T14:39:08.783Z,15.63
2019-01-04T14:41:38.892Z,14.60
2019-01-04T14:44:07.332Z,16.03
2019-01-04T14:46:35.797Z,20.03
2019-01-04T14:49:04.236Z,21.60
2019-01-04T14:51:32.686Z,14.53
2019-01-04T14:54:01.317Z,9.90
2019-01-04T14:56:29.758Z,13.87
2019-01-04T14:58:58.222Z,16.83
2019-01-04T15:01:26.662Z,22.93
2019-01-04T15:03:55.124Z,20.13
2019-01-04T15:06:23.565Z,17.43
2019-01-04T15:08:52.041Z,15.60
2019-01-04T15:11:20.605Z,21.17
2019-01-04T15:13:49.078Z,20.77
2019-01-04T15:16:17.512Z,13.60
2019-01-04T15:18:46.050Z,14.87
2019-01-04T15:21:14.488Z,8.87
2019-01-04T15:23:42.953Z,25.00
2019-01-04T15:26:11.405Z,12.80
2019-01-04T15:28:39.868Z,13.30
2019-01-04T15:31:08.443Z,10.90
2019-01-04T15:33:36.910Z,22.23
2019-01-04T15:36:05.372Z,11.10
2019-01-04T15:38:36.324Z,10.77
2019-01-04T15:41:04.001Z,13.93
2019-01-04T15:43:32.464Z,28.93
2019-01-04T15:46:00.903Z,17.33
2019-01-04T15:48:29.378Z,26.80
2019-01-04T15:50:57.857Z,20.17
2019-01-04T15:53:26.292Z,19.80
2019-01-04T15:55:54.866Z,27.50
2019-01-04T15:58:23.344Z,20.70
2019-01-04T16:00:51.784Z,16.30
2019-01-04T16:03:20.264Z,12.73
2019-01-04T16:05:48.704Z,15.43
2019-01-04T16:08:17.175Z,16.17
2019-01-04T16:10:45.619Z,27.30
2019-01-04T16:13:14.079Z,26.63
2019-01-04T16:15:42.519Z,17.37
2019-01-04T16:18:13.867Z,22.27
2019-01-04T16:20:42.603Z,16.00
2019-01-04T16:23:11.053Z,19.77
2019-01-04T16:25:39.515Z,22.53
2019-01-04T16:28:07.952Z,38.10
2019-01-04T16:30:36.421Z,20.93
2019-01-04T16:33:04.867Z,42.00
2019-01-04T16:35:33.333Z,23.40
2019-01-04T16:38:01.778Z,21.97
2019-01-04T16:40:30.248Z,27.53
2019-01-04T16:42:58.683Z,14.17
2019-01-04T16:45:27.158Z,21.83
2019-01-04T16:47:57.240Z,33.60
2019-01-04T16:50:26.073Z,36.17
2019-01-04T16:52:59.425Z,22.93
2019-01-04T16:55:24.764Z,28.60
2019-01-04T16:57:53.205Z,24.43
2019-01-04T17:00:21.670Z,30.10
2019-01-04T17:02:50.134Z,26.97
2019-01-04T17:05:18.588Z,22.47
2019-01-04T17:07:47.036Z,20.83
2019-01-04T17:10:15.670Z,29.33
2019-01-04T17:12:44.107Z,25.27
2019-01-04T17:15:12.555Z,20.80
2019-01-04T17:17:41.071Z,24.10
2019-01-04T17:20:09.475Z,30.30
2019-01-04T17:22:37.941Z,29.63
2019-01-04T17:25:07.724Z,36.90
2019-01-04T17:27:36.187Z,28.20
2019-01-04T17:30:07.471Z,31.13
2019-01-04T17:32:35.950Z,23.63
2019-01-04T17:35:05.325Z,15.13
2019-01-04T17:37:33.791Z,28.20
2019-01-04T17:40:02.236Z,16.23
2019-01-04T17:42:30.701Z,39.83
2019-01-04T17:44:59.152Z,41.47
2019-01-04T17:47:27.621Z,19.00
2019-01-04T17:49:56.064Z,27.63
2019-01-04T17:52:24.541Z,41.83
2019-01-04T17:54:52.983Z,14.70
2019-01-04T17:57:21.445Z,28.63
2019-01-04T17:59:49.883Z,32.77
2019-01-04T18:02:18.368Z,31.33
2019-01-04T18:04:46.815Z,30.87
2019-01-04T18:07:15.337Z,19.97
2019-01-04T18:09:43.786Z,19.23
2019-01-04T18:12:12.256Z,34.03
2019-01-04T18:14:40.698Z,25.60
2019-01-04T18:17:09.164Z,22.23
2019-01-04T18:19:37.609Z,24.60
2019-01-04T18:22:06.048Z,22.67
2019-01-04T18:24:34.526Z,31.93
2019-01-04T18:27:02.965Z,16.43
2019-01-04T18:29:31.439Z,27.73
2019-01-04T18:31:59.888Z,18.63
2019-01-04T18:34:28.360Z,18.13
2019-01-04T18:36:56.802Z,25.83
2019-01-04T18:39:25.273Z,33.37
2019-01-04T18:41:53.710Z,23.97
2019-01-04T18:44:22.175Z,24.17
2019-01-04T18:46:50.628Z,27.50
2019-01-04T18:49:19.087Z,17.97
2019-01-04T18:51:47.527Z,40.07
2019-01-04T18:54:16.000Z,31.03
2019-01-04T18:56:44.440Z,45.60
2019-01-04T18:59:12.909Z,27.90
2019-01-04T19:01:41.362Z,19.90
2019-01-04T19:04:09.837Z,26.47
2019-01-04T19:06:38.283Z,19.17
2019-01-04T19:09:07.588Z,19.87
2019-01-04T19:11:36.024Z,19.27
2019-01-04T19:14:04.486Z,16.93
2019-01-04T19:16:32.937Z,17.43
2019-01-04T19:19:01.415Z,32.00
2019-01-04T19:21:31.601Z,30.37
2019-01-04T19:24:00.135Z,25.40
2019-01-04T19:26:28.704Z,24.23
2019-01-04T19:28:57.159Z,33.67
2019-01-04T19:31:25.601Z,27.87
2019-01-04T19:33:54.371Z,41.23
2019-01-04T19:36:22.807Z,14.87
2019-01-04T19:38:51.316Z,32.00
2019-01-04T19:41:19.794Z,29.30
2019-01-04T19:43:48.234Z,22.40
2019-01-04T19:46:16.700Z,25.70
2019-01-04T19:48:45.146Z,18.90
2019-01-04T19:51:13.604Z,20.80
2019-01-04T19:53:42.046Z,22.00
2019-01-04T19:56:10.509Z,36.27
2019-01-04T19:58:38.965Z,22.97
2019-01-04T20:01:07.430Z,16.67
2019-01-04T20:03:35.870Z,12.70
2019-01-04T20:06:26.926Z,26.93
2019-01-04T20:09:28.715Z,17.10
2019-01-04T20:12:13.868Z,18.37
2019-01-04T20:15:01.891Z,17.23
2019-01-04T20:17:38.242Z,19.37
2019-01-04T20:20:28.821Z,24.50
2019-01-04T20:23:14.058Z,10.33
2019-01-04T20:26:00.781Z,13.60
2019-01-04T20:28:47.010Z,11.10
2019-01-04T20:31:28.932Z,31.17
2019-01-04T20:34:15.504Z,10.97
2019-01-04T20:36:57.569Z,17.97
2019-01-04T20:39:43.911Z,22.17
2019-01-04T20:42:16.448Z,24.20
2019-01-04T20:44:52.244Z,9.30
2019-01-04T20:47:22.343Z,19.23
2019-01-04T20:49:52.423Z,25.63
2019-01-04T20:52:38.540Z,22.53
2019-01-04T20:55:14.352Z,18.73
2019-01-04T20:57:53.731Z,11.00
2019-01-04T21:00:39.028Z,20.57
2019-01-04T21:03:11.763Z,12.50
2019-01-04T21:05:41.855Z,11.33
2019-01-04T21:08:11.968Z,21.43
2019-01-04T21:10:44.774Z,6.10
2019-01-04T21:13:14.879Z,14.63
2019-01-04T21:15:44.965Z,11.90
2019-01-04T21:18:30.994Z,18.87
2019-01-04T21:21:03.760Z,22.30
2019-01-04T21:23:40.049Z,19.23
2019-01-04T21:26:15.640Z,25.93
2019-01-04T21:28:51.808Z,22.23
2019-01-04T21:31:36.876Z,24.53
2019-01-04T21:34:24.853Z,25.77
2019-01-04T21:37:13.052Z,12.43
2019-01-04T21:39:46.106Z,19.90
2019-01-04T21:42:32.825Z,10.03
2019-01-04T21:45:02.912Z,25.80
2019-01-04T21:47:45.116Z,11.30
2019-01-04T21:50:20.944Z,26.77
2019-01-04T21:53:06.135Z,20.53
2019-01-04T21:55:51.523Z,18.27
2019-01-04T21:58:24.554Z,25.83
2019-01-04T22:01:03.281Z,19.33
2019-01-04T22:03:49.780Z,14.90
2019-01-04T22:06:25.543Z,13.90
2019-01-04T22:09:04.169Z,21.03
2019-01-04T22:11:50.163Z,15.77
2019-01-04T22:14:22.915Z,13.97
2019-01-04T22:16:53.001Z,20.10
2019-01-04T22:19:32.213Z,17.40
2019-01-04T22:22:18.449Z,12.70
2019-01-04T22:24:48.547Z,20.80
2019-01-04T22:27:27.852Z,31.07
2019-01-04T22:29:57.959Z,19.67
2019-01-04T22:32:37.287Z,27.83
2019-01-04T22:35:22.756Z,25.47
2019-01-04T22:37:52.849Z,16.73
2019-01-04T22:40:39.324Z,11.53
2019-01-04T22:43:27.805Z,11.07
2019-01-04T22:46:03.931Z,17.97
2019-01-04T22:48:39.462Z,16.83
2019-01-04T22:51:25.730Z,22.80
2019-01-04T22:53:55.811Z,16.20
2019-01-04T22:56:34.887Z,19.43
2019-01-04T22:59:07.839Z,14.77
2019-01-04T23:01:49.631Z,27.67
2019-01-04T23:04:34.416Z,12.83
2019-01-04T23:07:13.454Z,27.43
2019-01-04T23:10:01.949Z,13.53
2019-01-04T23:12:32.023Z,24.33
2019-01-04T23:15:04.821Z,13.93
2019-01-04T23:17:34.927Z,24.30
2019-01-04T23:20:05.869Z,12.80
2019-01-04T23:22:54.882Z,6.87
2019-01-04T23:25:28.063Z,17.00
2019-01-04T23:27:58.157Z,10.60
2019-01-04T23:30:30.996Z,24.77
2019-01-04T23:33:17.240Z,10.03
2019-01-04T23:35:47.345Z,14.07
2019-01-04T23:38:29.444Z,18.67
2019-01-04T23:41:08.279Z,10.33
2019-01-04T23:43:38.356Z,7.97
2019-01-04T23:46:14.208Z,11.90
2019-01-04T23:48:44.294Z,9.40
2019-01-04T23:51:30.660Z,18.33
2019-01-04T23:54:15.649Z,16.20
2019-01-04T23:56:45.750Z,15.03
2019-01-04T23:59:32.150Z,24.60
